sensor_id;sensor_type;location;lat;lon;timestamp;temperature;humidity
15819;DHT22;8010;53.986;12.106;2023-07-13T00:01:25;17.20;99.90
15819;DHT22;8010;53.986;12.106;2023-07-13T00:03:52;17.20;99.90
15819;DHT22;8010;53.986;12.106;2023-07-13T00:06:17;17.20;99.90
15819;DHT22;8010;53.986;12.106;2023-07-13T00:08:44;17.20;99.90
15819;DHT22;8010;53.986;12.106;2023-07-13T00:11:10;17.20;99.90
15819;DHT22;8010;53.986;12.106;2023-07-13T00:13:36;17.20;99.90
15819;DHT22;8010;53.986;12.106;2023-07-13T00:16:03;17.10;99.90
15819;DHT22;8010;53.986;12.106;2023-07-13T00:18:29;17.10;99.90
15819;DHT22;8010;53.986;12.106;2023-07-13T00:20:55;17.10;99.90
15819;DHT22;8010;53.986;12.106;2023-07-13T00:23:22;17.10;99.90
15819;DHT22;8010;53.986;12.106;2023-07-13T00:25:48;17.10;99.90
15819;DHT22;8010;53.986;12.106;2023-07-13T00:28:16;17.10;99.90
15819;DHT22;8010;53.986;12.106;2023-07-13T00:30:41;17.10;99.90
15819;DHT22;8010;53.986;12.106;2023-07-13T00:33:07;17.10;99.90
15819;DHT22;8010;53.986;12.106;2023-07-13T00:35:34;17.10;99.90
15819;DHT22;8010;53.986;12.106;2023-07-13T00:38:00;17.10;99.90
15819;DHT22;8010;53.986;12.106;2023-07-13T00:40:25;17.00;99.90
15819;DHT22;8010;53.986;12.106;2023-07-13T00:42:52;17.10;99.90
15819;DHT22;8010;53.986;12.106;2023-07-13T00:47:43;17.00;99.90
15819;DHT22;8010;53.986;12.106;2023-07-13T00:50:12;17.00;99.90
15819;DHT22;8010;53.986;12.106;2023-07-13T00:52:41;17.00;99.90
15819;DHT22;8010;53.986;12.106;2023-07-13T00:55:09;17.00;99.90
15819;DHT22;8010;53.986;12.106;2023-07-13T00:57:35;17.00;99.90
15819;DHT22;8010;53.986;12.106;2023-07-13T01:00:05;17.00;99.90
15819;DHT22;8010;53.986;12.106;2023-07-13T01:02:38;17.00;99.90
15819;DHT22;8010;53.986;12.106;2023-07-13T01:05:11;17.00;99.90
15819;DHT22;8010;53.986;12.106;2023-07-13T01:07:38;17.00;99.90
15819;DHT22;8010;53.986;12.106;2023-07-13T01:10:04;17.00;99.90
15819;DHT22;8010;53.986;12.106;2023-07-13T01:12:30;16.90;99.90
15819;DHT22;8010;53.986;12.106;2023-07-13T01:15:00;17.00;99.90
15819;DHT22;8010;53.986;12.106;2023-07-13T01:17:28;16.90;99.90
15819;DHT22;8010;53.986;12.106;2023-07-13T01:19:54;16.90;99.90
15819;DHT22;8010;53.986;12.106;2023-07-13T01:22:20;16.90;99.90
15819;DHT22;8010;53.986;12.106;2023-07-13T01:24:51;16.90;99.90
15819;DHT22;8010;53.986;12.106;2023-07-13T01:27:21;16.90;99.90
15819;DHT22;8010;53.986;12.106;2023-07-13T01:29:48;16.90;99.90
15819;DHT22;8010;53.986;12.106;2023-07-13T01:32:24;16.90;99.90
15819;DHT22;8010;53.986;12.106;2023-07-13T01:34:51;16.80;99.90
15819;DHT22;8010;53.986;12.106;2023-07-13T01:37:19;16.80;99.90
15819;DHT22;8010;53.986;12.106;2023-07-13T01:39:45;16.80;99.90
15819;DHT22;8010;53.986;12.106;2023-07-13T01:42:12;16.80;99.90
15819;DHT22;8010;53.986;12.106;2023-07-13T01:44:37;16.80;99.90
15819;DHT22;8010;53.986;12.106;2023-07-13T01:47:03;16.80;99.90
15819;DHT22;8010;53.986;12.106;2023-07-13T01:49:29;16.80;99.90
15819;DHT22;8010;53.986;12.106;2023-07-13T01:51:54;16.80;99.90
15819;DHT22;8010;53.986;12.106;2023-07-13T01:54:20;16.70;99.90
15819;DHT22;8010;53.986;12.106;2023-07-13T01:56:45;16.70;99.90
15819;DHT22;8010;53.986;12.106;2023-07-13T01:59:11;16.60;99.90
15819;DHT22;8010;53.986;12.106;2023-07-13T02:01:37;16.60;99.90
15819;DHT22;8010;53.986;12.106;2023-07-13T02:04:02;16.60;99.90
15819;DHT22;8010;53.986;12.106;2023-07-13T02:06:28;16.50;99.90
15819;DHT22;8010;53.986;12.106;2023-07-13T02:08:54;16.50;99.90
15819;DHT22;8010;53.986;12.106;2023-07-13T02:11:19;16.40;99.90
15819;DHT22;8010;53.986;12.106;2023-07-13T02:13:45;16.40;99.90
15819;DHT22;8010;53.986;12.106;2023-07-13T02:16:10;16.30;99.90
15819;DHT22;8010;53.986;12.106;2023-07-13T02:18:36;16.30;99.90
15819;DHT22;8010;53.986;12.106;2023-07-13T02:21:02;16.20;99.90
15819;DHT22;8010;53.986;12.106;2023-07-13T02:23:28;16.10;99.90
15819;DHT22;8010;53.986;12.106;2023-07-13T02:25:58;16.10;99.90
15819;DHT22;8010;53.986;12.106;2023-07-13T02:28:24;16.10;99.90
15819;DHT22;8010;53.986;12.106;2023-07-13T02:30:49;16.00;99.90
15819;DHT22;8010;53.986;12.106;2023-07-13T02:33:15;16.00;99.90
15819;DHT22;8010;53.986;12.106;2023-07-13T02:35:41;16.00;99.90
15819;DHT22;8010;53.986;12.106;2023-07-13T02:38:06;16.00;99.90
15819;DHT22;8010;53.986;12.106;2023-07-13T02:40:32;16.00;99.90
15819;DHT22;8010;53.986;12.106;2023-07-13T02:43:01;15.90;99.90
15819;DHT22;8010;53.986;12.106;2023-07-13T02:45:27;15.90;99.90
15819;DHT22;8010;53.986;12.106;2023-07-13T02:47:52;15.90;99.90
15819;DHT22;8010;53.986;12.106;2023-07-13T02:50:18;15.90;99.90
15819;DHT22;8010;53.986;12.106;2023-07-13T02:52:43;15.90;99.90
15819;DHT22;8010;53.986;12.106;2023-07-13T02:55:09;15.90;99.90
15819;DHT22;8010;53.986;12.106;2023-07-13T02:57:35;15.90;99.90
15819;DHT22;8010;53.986;12.106;2023-07-13T03:00:02;15.90;99.90
15819;DHT22;8010;53.986;12.106;2023-07-13T03:02:31;15.90;99.90
15819;DHT22;8010;53.986;12.106;2023-07-13T03:04:57;15.90;99.90
15819;DHT22;8010;53.986;12.106;2023-07-13T03:07:23;15.90;99.90
15819;DHT22;8010;53.986;12.106;2023-07-13T03:09:48;15.90;99.90
15819;DHT22;8010;53.986;12.106;2023-07-13T03:12:14;15.90;99.90
15819;DHT22;8010;53.986;12.106;2023-07-13T03:14:39;15.90;99.90
15819;DHT22;8010;53.986;12.106;2023-07-13T03:17:05;15.90;99.90
15819;DHT22;8010;53.986;12.106;2023-07-13T03:19:30;15.80;99.90
15819;DHT22;8010;53.986;12.106;2023-07-13T03:21:56;15.90;99.90
15819;DHT22;8010;53.986;12.106;2023-07-13T03:24:21;15.80;99.90
15819;DHT22;8010;53.986;12.106;2023-07-13T03:26:48;15.80;99.90
15819;DHT22;8010;53.986;12.106;2023-07-13T03:29:14;15.80;99.90
15819;DHT22;8010;53.986;12.106;2023-07-13T03:31:40;15.70;99.90
15819;DHT22;8010;53.986;12.106;2023-07-13T03:34:05;15.70;99.90
15819;DHT22;8010;53.986;12.106;2023-07-13T03:36:32;15.60;99.90
15819;DHT22;8010;53.986;12.106;2023-07-13T03:38:59;15.60;99.90
15819;DHT22;8010;53.986;12.106;2023-07-13T03:41:25;15.60;99.90
15819;DHT22;8010;53.986;12.106;2023-07-13T03:43:51;15.60;99.90
15819;DHT22;8010;53.986;12.106;2023-07-13T03:46:17;15.60;99.90
15819;DHT22;8010;53.986;12.106;2023-07-13T03:48:45;15.60;99.90
15819;DHT22;8010;53.986;12.106;2023-07-13T03:51:12;15.50;99.90
15819;DHT22;8010;53.986;12.106;2023-07-13T03:53:41;15.50;99.90
15819;DHT22;8010;53.986;12.106;2023-07-13T03:56:07;15.50;99.90
15819;DHT22;8010;53.986;12.106;2023-07-13T03:58:38;15.50;99.90
15819;DHT22;8010;53.986;12.106;2023-07-13T04:01:05;15.50;99.90
15819;DHT22;8010;53.986;12.106;2023-07-13T04:03:32;15.50;99.90
15819;DHT22;8010;53.986;12.106;2023-07-13T04:05:59;15.50;99.90
15819;DHT22;8010;53.986;12.106;2023-07-13T04:08:36;15.60;99.90
15819;DHT22;8010;53.986;12.106;2023-07-13T04:11:04;15.70;99.90
15819;DHT22;8010;53.986;12.106;2023-07-13T04:13:30;15.70;99.90
15819;DHT22;8010;53.986;12.106;2023-07-13T04:15:56;15.70;99.90
15819;DHT22;8010;53.986;12.106;2023-07-13T04:18:22;15.70;99.90
15819;DHT22;8010;53.986;12.106;2023-07-13T04:20:48;15.80;99.90
15819;DHT22;8010;53.986;12.106;2023-07-13T04:23:15;15.80;99.90
15819;DHT22;8010;53.986;12.106;2023-07-13T04:25:44;15.80;99.90
15819;DHT22;8010;53.986;12.106;2023-07-13T04:28:09;15.90;99.90
15819;DHT22;8010;53.986;12.106;2023-07-13T04:30:35;15.90;99.90
15819;DHT22;8010;53.986;12.106;2023-07-13T04:33:00;16.00;99.90
15819;DHT22;8010;53.986;12.106;2023-07-13T04:35:26;16.00;99.90
15819;DHT22;8010;53.986;12.106;2023-07-13T04:37:52;16.00;99.90
15819;DHT22;8010;53.986;12.106;2023-07-13T04:40:18;16.10;99.90
15819;DHT22;8010;53.986;12.106;2023-07-13T04:42:47;16.20;99.90
15819;DHT22;8010;53.986;12.106;2023-07-13T04:45:14;16.20;99.90
15819;DHT22;8010;53.986;12.106;2023-07-13T04:47:40;16.20;99.90
15819;DHT22;8010;53.986;12.106;2023-07-13T04:50:07;16.30;99.90
15819;DHT22;8010;53.986;12.106;2023-07-13T04:52:33;16.30;99.90
15819;DHT22;8010;53.986;12.106;2023-07-13T04:54:59;16.50;99.90
15819;DHT22;8010;53.986;12.106;2023-07-13T04:57:25;16.50;99.90
15819;DHT22;8010;53.986;12.106;2023-07-13T04:59:51;16.60;99.90
15819;DHT22;8010;53.986;12.106;2023-07-13T05:02:16;16.60;99.90
15819;DHT22;8010;53.986;12.106;2023-07-13T05:04:42;16.70;99.90
15819;DHT22;8010;53.986;12.106;2023-07-13T05:07:07;16.70;99.90
15819;DHT22;8010;53.986;12.106;2023-07-13T05:09:33;16.80;99.90
15819;DHT22;8010;53.986;12.106;2023-07-13T05:11:58;16.90;99.90
15819;DHT22;8010;53.986;12.106;2023-07-13T05:14:24;16.90;99.90
15819;DHT22;8010;53.986;12.106;2023-07-13T05:16:49;16.90;99.90
15819;DHT22;8010;53.986;12.106;2023-07-13T05:19:15;17.00;99.90
15819;DHT22;8010;53.986;12.106;2023-07-13T05:21:40;17.00;99.90
15819;DHT22;8010;53.986;12.106;2023-07-13T05:24:06;17.10;99.90
15819;DHT22;8010;53.986;12.106;2023-07-13T05:26:32;17.10;99.90
15819;DHT22;8010;53.986;12.106;2023-07-13T05:28:58;17.10;99.90
15819;DHT22;8010;53.986;12.106;2023-07-13T05:31:23;17.20;99.90
15819;DHT22;8010;53.986;12.106;2023-07-13T05:33:49;17.30;99.90
15819;DHT22;8010;53.986;12.106;2023-07-13T05:36:14;17.30;99.90
15819;DHT22;8010;53.986;12.106;2023-07-13T05:38:40;17.40;99.90
15819;DHT22;8010;53.986;12.106;2023-07-13T05:41:06;17.50;99.90
15819;DHT22;8010;53.986;12.106;2023-07-13T05:43:31;17.50;99.90
15819;DHT22;8010;53.986;12.106;2023-07-13T05:45:57;17.60;99.90
15819;DHT22;8010;53.986;12.106;2023-07-13T05:48:23;17.70;99.90
15819;DHT22;8010;53.986;12.106;2023-07-13T05:50:49;17.80;99.90
15819;DHT22;8010;53.986;12.106;2023-07-13T05:53:15;17.90;99.90
15819;DHT22;8010;53.986;12.106;2023-07-13T05:55:45;18.00;99.90
15819;DHT22;8010;53.986;12.106;2023-07-13T05:58:19;18.10;99.90
15819;DHT22;8010;53.986;12.106;2023-07-13T06:00:45;18.20;99.90
15819;DHT22;8010;53.986;12.106;2023-07-13T06:03:10;18.20;99.90
15819;DHT22;8010;53.986;12.106;2023-07-13T06:05:37;18.20;99.90
15819;DHT22;8010;53.986;12.106;2023-07-13T06:08:03;18.30;99.90
15819;DHT22;8010;53.986;12.106;2023-07-13T06:10:31;18.30;99.90
15819;DHT22;8010;53.986;12.106;2023-07-13T06:12:57;18.40;99.90
15819;DHT22;8010;53.986;12.106;2023-07-13T06:15:22;18.60;99.90
15819;DHT22;8010;53.986;12.106;2023-07-13T06:17:48;18.50;99.90
15819;DHT22;8010;53.986;12.106;2023-07-13T06:20:14;18.60;99.90
15819;DHT22;8010;53.986;12.106;2023-07-13T06:22:39;18.70;99.90
15819;DHT22;8010;53.986;12.106;2023-07-13T06:25:05;18.80;99.90
15819;DHT22;8010;53.986;12.106;2023-07-13T06:27:31;18.90;99.90
15819;DHT22;8010;53.986;12.106;2023-07-13T06:29:56;19.00;99.90
15819;DHT22;8010;53.986;12.106;2023-07-13T06:32:22;19.00;99.90
15819;DHT22;8010;53.986;12.106;2023-07-13T06:34:47;19.10;99.90
15819;DHT22;8010;53.986;12.106;2023-07-13T06:37:13;19.10;99.90
15819;DHT22;8010;53.986;12.106;2023-07-13T06:39:39;19.30;99.90
15819;DHT22;8010;53.986;12.106;2023-07-13T06:42:05;19.30;99.90
15819;DHT22;8010;53.986;12.106;2023-07-13T06:44:31;19.40;99.90
15819;DHT22;8010;53.986;12.106;2023-07-13T06:46:56;19.50;99.90
15819;DHT22;8010;53.986;12.106;2023-07-13T06:49:22;19.60;99.90
15819;DHT22;8010;53.986;12.106;2023-07-13T06:51:47;19.70;99.90
15819;DHT22;8010;53.986;12.106;2023-07-13T06:54:13;19.80;99.90
15819;DHT22;8010;53.986;12.106;2023-07-13T06:56:39;19.90;99.90
15819;DHT22;8010;53.986;12.106;2023-07-13T06:59:04;20.00;99.90
15819;DHT22;8010;53.986;12.106;2023-07-13T07:01:30;20.10;99.90
15819;DHT22;8010;53.986;12.106;2023-07-13T07:03:56;20.00;99.90
15819;DHT22;8010;53.986;12.106;2023-07-13T07:06:22;20.00;99.90
15819;DHT22;8010;53.986;12.106;2023-07-13T07:08:51;20.10;99.90
15819;DHT22;8010;53.986;12.106;2023-07-13T07:11:20;20.20;99.90
15819;DHT22;8010;53.986;12.106;2023-07-13T07:13:47;20.20;99.90
15819;DHT22;8010;53.986;12.106;2023-07-13T07:16:13;20.30;99.90
15819;DHT22;8010;53.986;12.106;2023-07-13T07:18:38;20.50;99.90
15819;DHT22;8010;53.986;12.106;2023-07-13T07:21:04;20.50;99.90
15819;DHT22;8010;53.986;12.106;2023-07-13T07:23:29;20.60;99.90
15819;DHT22;8010;53.986;12.106;2023-07-13T07:25:55;20.70;99.90
15819;DHT22;8010;53.986;12.106;2023-07-13T07:28:20;20.80;99.90
15819;DHT22;8010;53.986;12.106;2023-07-13T07:30:47;20.90;99.90
15819;DHT22;8010;53.986;12.106;2023-07-13T07:33:13;20.80;99.90
15819;DHT22;8010;53.986;12.106;2023-07-13T07:35:39;20.80;99.90
15819;DHT22;8010;53.986;12.106;2023-07-13T07:38:04;20.80;99.90
15819;DHT22;8010;53.986;12.106;2023-07-13T07:40:30;20.80;99.90
15819;DHT22;8010;53.986;12.106;2023-07-13T07:42:56;20.90;99.90
15819;DHT22;8010;53.986;12.106;2023-07-13T07:45:22;21.00;99.90
15819;DHT22;8010;53.986;12.106;2023-07-13T07:47:47;21.20;99.90
15819;DHT22;8010;53.986;12.106;2023-07-13T07:50:13;21.50;99.90
15819;DHT22;8010;53.986;12.106;2023-07-13T07:52:39;21.70;99.90
15819;DHT22;8010;53.986;12.106;2023-07-13T07:55:06;21.90;99.90
15819;DHT22;8010;53.986;12.106;2023-07-13T07:57:32;22.00;99.90
15819;DHT22;8010;53.986;12.106;2023-07-13T07:59:58;22.00;99.90
15819;DHT22;8010;53.986;12.106;2023-07-13T08:02:24;22.00;99.90
15819;DHT22;8010;53.986;12.106;2023-07-13T08:04:51;22.10;99.90
15819;DHT22;8010;53.986;12.106;2023-07-13T08:07:16;22.00;99.90
15819;DHT22;8010;53.986;12.106;2023-07-13T08:09:42;22.00;99.90
15819;DHT22;8010;53.986;12.106;2023-07-13T08:12:08;22.10;99.90
15819;DHT22;8010;53.986;12.106;2023-07-13T08:14:33;22.30;99.90
15819;DHT22;8010;53.986;12.106;2023-07-13T08:16:59;22.80;99.90
15819;DHT22;8010;53.986;12.106;2023-07-13T08:19:24;22.60;99.90
15819;DHT22;8010;53.986;12.106;2023-07-13T08:21:50;22.40;99.90
15819;DHT22;8010;53.986;12.106;2023-07-13T08:24:15;22.20;99.90
15819;DHT22;8010;53.986;12.106;2023-07-13T08:26:44;22.00;99.90
15819;DHT22;8010;53.986;12.106;2023-07-13T08:29:09;22.10;99.90
15819;DHT22;8010;53.986;12.106;2023-07-13T08:31:35;22.10;99.90
15819;DHT22;8010;53.986;12.106;2023-07-13T08:34:00;22.30;99.90
15819;DHT22;8010;53.986;12.106;2023-07-13T08:36:26;22.20;99.90
15819;DHT22;8010;53.986;12.106;2023-07-13T08:38:53;22.20;99.90
15819;DHT22;8010;53.986;12.106;2023-07-13T08:41:21;22.10;99.90
15819;DHT22;8010;53.986;12.106;2023-07-13T08:43:50;22.00;99.90
15819;DHT22;8010;53.986;12.106;2023-07-13T08:46:26;22.10;99.90
15819;DHT22;8010;53.986;12.106;2023-07-13T08:49:17;22.40;99.90
15819;DHT22;8010;53.986;12.106;2023-07-13T08:51:42;22.70;99.90
15819;DHT22;8010;53.986;12.106;2023-07-13T08:54:22;22.90;99.90
15819;DHT22;8010;53.986;12.106;2023-07-13T08:56:51;23.00;99.90
15819;DHT22;8010;53.986;12.106;2023-07-13T08:59:21;23.00;99.90
15819;DHT22;8010;53.986;12.106;2023-07-13T09:02:09;22.70;99.90
15819;DHT22;8010;53.986;12.106;2023-07-13T09:04:59;22.90;99.90
15819;DHT22;8010;53.986;12.106;2023-07-13T09:07:55;23.10;99.90
15819;DHT22;8010;53.986;12.106;2023-07-13T09:10:30;23.40;99.90
15819;DHT22;8010;53.986;12.106;2023-07-13T09:13:20;23.80;99.90
15819;DHT22;8010;53.986;12.106;2023-07-13T09:15:50;23.60;99.90
15819;DHT22;8010;53.986;12.106;2023-07-13T09:18:33;23.20;99.90
15819;DHT22;8010;53.986;12.106;2023-07-13T09:21:12;22.80;99.90
15819;DHT22;8010;53.986;12.106;2023-07-13T09:23:39;22.40;99.90
15819;DHT22;8010;53.986;12.106;2023-07-13T09:28:46;22.60;99.90
15819;DHT22;8010;53.986;12.106;2023-07-13T09:31:20;23.00;99.90
15819;DHT22;8010;53.986;12.106;2023-07-13T09:33:49;23.50;99.90
15819;DHT22;8010;53.986;12.106;2023-07-13T09:38:44;23.90;99.90
15819;DHT22;8010;53.986;12.106;2023-07-13T09:41:35;24.10;99.90
15819;DHT22;8010;53.986;12.106;2023-07-13T09:44:11;24.20;99.90
15819;DHT22;8010;53.986;12.106;2023-07-13T09:46:43;24.10;99.90
15819;DHT22;8010;53.986;12.106;2023-07-13T09:49:12;24.00;99.90
15819;DHT22;8010;53.986;12.106;2023-07-13T09:51:40;23.80;99.90
15819;DHT22;8010;53.986;12.106;2023-07-13T09:54:18;23.50;99.90
15819;DHT22;8010;53.986;12.106;2023-07-13T09:56:44;23.50;99.90
15819;DHT22;8010;53.986;12.106;2023-07-13T09:59:26;22.90;99.90
15819;DHT22;8010;53.986;12.106;2023-07-13T10:01:52;22.50;99.90
15819;DHT22;8010;53.986;12.106;2023-07-13T10:04:19;22.40;99.90
15819;DHT22;8010;53.986;12.106;2023-07-13T10:06:45;22.10;99.90
15819;DHT22;8010;53.986;12.106;2023-07-13T10:09:17;22.20;99.90
15819;DHT22;8010;53.986;12.106;2023-07-13T10:11:44;22.10;99.90
15819;DHT22;8010;53.986;12.106;2023-07-13T10:16:36;23.00;99.90
15819;DHT22;8010;53.986;12.106;2023-07-13T10:21:42;23.70;99.90
15819;DHT22;8010;53.986;12.106;2023-07-13T10:24:21;23.40;99.90
15819;DHT22;8010;53.986;12.106;2023-07-13T10:29:37;22.70;99.90
15819;DHT22;8010;53.986;12.106;2023-07-13T10:32:09;22.50;99.90
15819;DHT22;8010;53.986;12.106;2023-07-13T10:34:36;22.30;99.90
15819;DHT22;8010;53.986;12.106;2023-07-13T10:37:02;22.20;99.90
15819;DHT22;8010;53.986;12.106;2023-07-13T10:39:28;22.20;99.90
15819;DHT22;8010;53.986;12.106;2023-07-13T10:41:59;22.10;99.90
15819;DHT22;8010;53.986;12.106;2023-07-13T10:44:29;22.10;99.90
15819;DHT22;8010;53.986;12.106;2023-07-13T10:46:58;22.00;99.90
15819;DHT22;8010;53.986;12.106;2023-07-13T10:49:27;22.00;99.90
15819;DHT22;8010;53.986;12.106;2023-07-13T10:51:53;21.90;99.90
15819;DHT22;8010;53.986;12.106;2023-07-13T10:54:21;21.60;99.90
15819;DHT22;8010;53.986;12.106;2023-07-13T10:56:53;21.40;99.90
15819;DHT22;8010;53.986;12.106;2023-07-13T10:59:24;21.70;99.90
15819;DHT22;8010;53.986;12.106;2023-07-13T11:04:43;22.40;99.90
15819;DHT22;8010;53.986;12.106;2023-07-13T11:07:24;22.50;99.90
15819;DHT22;8010;53.986;12.106;2023-07-13T11:09:59;22.60;99.90
15819;DHT22;8010;53.986;12.106;2023-07-13T11:17:50;23.80;99.90
15819;DHT22;8010;53.986;12.106;2023-07-13T11:25:41;25.30;99.90
15819;DHT22;8010;53.986;12.106;2023-07-13T11:31:00;24.90;99.90
15819;DHT22;8010;53.986;12.106;2023-07-13T11:36:14;24.10;99.90
15819;DHT22;8010;53.986;12.106;2023-07-13T11:38:41;23.70;99.90
15819;DHT22;8010;53.986;12.106;2023-07-13T11:41:31;23.50;99.90
15819;DHT22;8010;53.986;12.106;2023-07-13T11:44:21;23.30;99.90
15819;DHT22;8010;53.986;12.106;2023-07-13T11:46:52;23.30;99.90
15819;DHT22;8010;53.986;12.106;2023-07-13T11:49:20;23.30;99.90
15819;DHT22;8010;53.986;12.106;2023-07-13T11:51:46;23.20;99.90
15819;DHT22;8010;53.986;12.106;2023-07-13T11:54:27;23.10;99.90
15819;DHT22;8010;53.986;12.106;2023-07-13T11:57:01;23.10;99.90
15819;DHT22;8010;53.986;12.106;2023-07-13T11:59:28;23.40;99.90
15819;DHT22;8010;53.986;12.106;2023-07-13T12:01:55;23.40;99.90
15819;DHT22;8010;53.986;12.106;2023-07-13T12:04:27;23.40;99.90
15819;DHT22;8010;53.986;12.106;2023-07-13T12:06:58;23.10;99.90
15819;DHT22;8010;53.986;12.106;2023-07-13T12:09:29;23.00;99.90
15819;DHT22;8010;53.986;12.106;2023-07-13T12:11:57;23.00;99.90
15819;DHT22;8010;53.986;12.106;2023-07-13T12:14:23;23.10;99.90
15819;DHT22;8010;53.986;12.106;2023-07-13T12:16:50;23.00;99.90
15819;DHT22;8010;53.986;12.106;2023-07-13T12:19:25;23.00;99.90
15819;DHT22;8010;53.986;12.106;2023-07-13T12:21:55;23.00;99.90
15819;DHT22;8010;53.986;12.106;2023-07-13T12:24:22;22.90;99.90
15819;DHT22;8010;53.986;12.106;2023-07-13T12:26:58;22.70;99.90
15819;DHT22;8010;53.986;12.106;2023-07-13T12:29:25;22.50;99.90
15819;DHT22;8010;53.986;12.106;2023-07-13T12:31:51;22.80;99.90
15819;DHT22;8010;53.986;12.106;2023-07-13T12:34:22;23.40;99.90
15819;DHT22;8010;53.986;12.106;2023-07-13T12:36:55;24.10;99.90
15819;DHT22;8010;53.986;12.106;2023-07-13T12:41:49;25.40;99.90
15819;DHT22;8010;53.986;12.106;2023-07-13T12:44:39;25.80;99.90
15819;DHT22;8010;53.986;12.106;2023-07-13T12:47:09;26.20;99.90
15819;DHT22;8010;53.986;12.106;2023-07-13T12:49:41;26.50;99.90
15819;DHT22;8010;53.986;12.106;2023-07-13T12:52:14;26.20;99.90
15819;DHT22;8010;53.986;12.106;2023-07-13T12:54:40;26.00;99.90
15819;DHT22;8010;53.986;12.106;2023-07-13T12:57:12;25.80;99.90
15819;DHT22;8010;53.986;12.106;2023-07-13T12:59:40;25.40;99.90
15819;DHT22;8010;53.986;12.106;2023-07-13T13:04:49;25.70;99.90
15819;DHT22;8010;53.986;12.106;2023-07-13T13:07:14;25.00;99.90
15819;DHT22;8010;53.986;12.106;2023-07-13T13:09:40;24.30;99.90
15819;DHT22;8010;53.986;12.106;2023-07-13T13:12:06;23.60;99.90
15819;DHT22;8010;53.986;12.106;2023-07-13T13:14:32;22.90;99.90
15819;DHT22;8010;53.986;12.106;2023-07-13T13:16:57;22.30;99.90
15819;DHT22;8010;53.986;12.106;2023-07-13T13:19:28;21.80;99.90
15819;DHT22;8010;53.986;12.106;2023-07-13T13:21:55;21.30;99.90
15819;DHT22;8010;53.986;12.106;2023-07-13T13:24:24;21.20;99.90
15819;DHT22;8010;53.986;12.106;2023-07-13T13:26:51;21.20;99.90
15819;DHT22;8010;53.986;12.106;2023-07-13T13:29:22;21.10;99.90
15819;DHT22;8010;53.986;12.106;2023-07-13T13:31:53;21.20;99.90
15819;DHT22;8010;53.986;12.106;2023-07-13T13:34:19;21.40;99.90
15819;DHT22;8010;53.986;12.106;2023-07-13T13:36:46;21.70;99.90
15819;DHT22;8010;53.986;12.106;2023-07-13T13:39:20;22.40;99.90
15819;DHT22;8010;53.986;12.106;2023-07-13T13:41:47;23.30;99.90
15819;DHT22;8010;53.986;12.106;2023-07-13T13:44:15;24.00;99.90
15819;DHT22;8010;53.986;12.106;2023-07-13T13:46:41;24.60;99.90
15819;DHT22;8010;53.986;12.106;2023-07-13T13:49:16;24.70;99.90
15819;DHT22;8010;53.986;12.106;2023-07-13T13:51:43;24.50;99.90
15819;DHT22;8010;53.986;12.106;2023-07-13T13:54:16;23.90;99.90
15819;DHT22;8010;53.986;12.106;2023-07-13T13:56:47;23.70;99.90
15819;DHT22;8010;53.986;12.106;2023-07-13T13:59:13;23.60;99.90
15819;DHT22;8010;53.986;12.106;2023-07-13T14:01:40;23.60;99.90
15819;DHT22;8010;53.986;12.106;2023-07-13T14:04:13;23.70;99.90
15819;DHT22;8010;53.986;12.106;2023-07-13T14:06:40;23.60;99.90
15819;DHT22;8010;53.986;12.106;2023-07-13T14:09:09;23.40;99.90
15819;DHT22;8010;53.986;12.106;2023-07-13T14:11:36;23.40;99.90
15819;DHT22;8010;53.986;12.106;2023-07-13T14:14:02;23.40;99.90
15819;DHT22;8010;53.986;12.106;2023-07-13T14:16:31;23.40;99.90
15819;DHT22;8010;53.986;12.106;2023-07-13T14:18:57;23.70;99.90
15819;DHT22;8010;53.986;12.106;2023-07-13T14:21:26;24.10;99.90
15819;DHT22;8010;53.986;12.106;2023-07-13T14:23:52;24.40;99.90
15819;DHT22;8010;53.986;12.106;2023-07-13T14:26:20;24.60;99.90
15819;DHT22;8010;53.986;12.106;2023-07-13T14:28:48;24.40;99.90
15819;DHT22;8010;53.986;12.106;2023-07-13T14:31:16;24.10;99.90
15819;DHT22;8010;53.986;12.106;2023-07-13T14:33:42;23.70;99.90
15819;DHT22;8010;53.986;12.106;2023-07-13T14:36:32;23.40;99.90
15819;DHT22;8010;53.986;12.106;2023-07-13T14:38:59;23.20;99.90
15819;DHT22;8010;53.986;12.106;2023-07-13T14:41:26;23.00;99.90
15819;DHT22;8010;53.986;12.106;2023-07-13T14:43:52;23.00;99.90
15819;DHT22;8010;53.986;12.106;2023-07-13T14:46:23;23.20;99.90
15819;DHT22;8010;53.986;12.106;2023-07-13T14:48:50;23.70;99.90
15819;DHT22;8010;53.986;12.106;2023-07-13T14:51:16;24.20;99.90
15819;DHT22;8010;53.986;12.106;2023-07-13T14:53:41;24.40;99.90
15819;DHT22;8010;53.986;12.106;2023-07-13T14:56:11;24.40;99.90
15819;DHT22;8010;53.986;12.106;2023-07-13T14:58:37;24.20;99.90
15819;DHT22;8010;53.986;12.106;2023-07-13T15:01:03;24.00;99.90
15819;DHT22;8010;53.986;12.106;2023-07-13T15:03:29;23.40;99.90
15819;DHT22;8010;53.986;12.106;2023-07-13T15:05:54;22.80;99.90
15819;DHT22;8010;53.986;12.106;2023-07-13T15:08:20;22.40;99.90
15819;DHT22;8010;53.986;12.106;2023-07-13T15:10:45;22.00;99.90
15819;DHT22;8010;53.986;12.106;2023-07-13T15:13:19;21.50;99.90
15819;DHT22;8010;53.986;12.106;2023-07-13T15:15:47;21.20;99.90
15819;DHT22;8010;53.986;12.106;2023-07-13T15:18:15;21.00;99.90
15819;DHT22;8010;53.986;12.106;2023-07-13T15:20:43;20.60;99.90
15819;DHT22;8010;53.986;12.106;2023-07-13T15:23:11;20.50;99.90
15819;DHT22;8010;53.986;12.106;2023-07-13T15:25:37;20.30;99.90
15819;DHT22;8010;53.986;12.106;2023-07-13T15:28:02;21.00;99.90
15819;DHT22;8010;53.986;12.106;2023-07-13T15:30:41;19.90;99.90
15819;DHT22;8010;53.986;12.106;2023-07-13T15:33:16;19.70;99.90
15819;DHT22;8010;53.986;12.106;2023-07-13T15:35:43;19.50;99.90
15819;DHT22;8010;53.986;12.106;2023-07-13T15:38:18;19.30;99.90
15819;DHT22;8010;53.986;12.106;2023-07-13T15:40:44;19.20;99.90
15819;DHT22;8010;53.986;12.106;2023-07-13T15:43:11;19.10;99.90
15819;DHT22;8010;53.986;12.106;2023-07-13T15:45:37;19.10;99.90
15819;DHT22;8010;53.986;12.106;2023-07-13T15:48:13;19.00;99.90
15819;DHT22;8010;53.986;12.106;2023-07-13T15:50:45;19.00;99.90
15819;DHT22;8010;53.986;12.106;2023-07-13T15:53:13;18.70;99.90
15819;DHT22;8010;53.986;12.106;2023-07-13T15:55:39;18.60;99.90
15819;DHT22;8010;53.986;12.106;2023-07-13T15:58:11;18.50;99.90
15819;DHT22;8010;53.986;12.106;2023-07-13T16:00:37;18.40;99.90
15819;DHT22;8010;53.986;12.106;2023-07-13T16:03:03;18.50;99.90
15819;DHT22;8010;53.986;12.106;2023-07-13T16:05:30;18.40;99.90
15819;DHT22;8010;53.986;12.106;2023-07-13T16:07:56;18.50;99.90
15819;DHT22;8010;53.986;12.106;2023-07-13T16:10:30;18.50;99.90
15819;DHT22;8010;53.986;12.106;2023-07-13T16:12:56;18.60;99.90
15819;DHT22;8010;53.986;12.106;2023-07-13T16:15:22;18.60;99.90